sensor_id;sensor_type;location;lat;lon;timestamp;P1;durP1;ratioP1;P2;durP2;ratioP2
13185;SDS011;6658;53.080;7.428;2024-03-08T00:02:16;18.67;;;14.37;;
13185;SDS011;6658;53.080;7.428;2024-03-08T00:04:42;19.67;;;15.20;;
13185;SDS011;6658;53.080;7.428;2024-03-08T00:07:07;19.93;;;15.83;;
13185;SDS011;6658;53.080;7.428;2024-03-08T00:09:33;18.33;;;13.20;;
13185;SDS011;6658;53.080;7.428;2024-03-08T00:11:59;18.50;;;15.37;;
13185;SDS011;6658;53.080;7.428;2024-03-08T00:14:24;20.40;;;14.00;;
13185;SDS011;6658;53.080;7.428;2024-03-08T00:16:50;18.13;;;13.10;;
13185;SDS011;6658;53.080;7.428;2024-03-08T00:19:19;21.13;;;16.00;;
13185;SDS011;6658;53.080;7.428;2024-03-08T00:21:45;20.40;;;14.53;;
13185;SDS011;6658;53.080;7.428;2024-03-08T00:24:10;20.20;;;15.43;;
13185;SDS011;6658;53.080;7.428;2024-03-08T00:26:37;17.70;;;14.50;;
13185;SDS011;6658;53.080;7.428;2024-03-08T00:29:03;18.63;;;14.67;;
13185;SDS011;6658;53.080;7.428;2024-03-08T00:31:28;19.53;;;16.13;;
13185;SDS011;6658;53.080;7.428;2024-03-08T00:33:56;18.50;;;15.20;;
13185;SDS011;6658;53.080;7.428;2024-03-08T00:36:22;21.73;;;16.17;;
13185;SDS011;6658;53.080;7.428;2024-03-08T00:38:48;18.27;;;14.83;;
13185;SDS011;6658;53.080;7.428;2024-03-08T00:41:13;19.07;;;15.30;;
13185;SDS011;6658;53.080;7.428;2024-03-08T00:43:39;21.23;;;15.00;;
13185;SDS011;6658;53.080;7.428;2024-03-08T00:46:05;21.13;;;16.13;;
13185;SDS011;6658;53.080;7.428;2024-03-08T00:48:30;21.47;;;15.60;;
13185;SDS011;6658;53.080;7.428;2024-03-08T00:50:56;19.20;;;16.23;;
13185;SDS011;6658;53.080;7.428;2024-03-08T00:53:22;18.97;;;14.13;;
13185;SDS011;6658;53.080;7.428;2024-03-08T00:55:48;22.10;;;14.80;;
13185;SDS011;6658;53.080;7.428;2024-03-08T00:58:14;17.77;;;14.57;;
13185;SDS011;6658;53.080;7.428;2024-03-08T01:00:39;21.10;;;15.73;;
13185;SDS011;6658;53.080;7.428;2024-03-08T01:03:05;20.73;;;14.70;;
13185;SDS011;6658;53.080;7.428;2024-03-08T01:05:31;20.63;;;15.33;;
13185;SDS011;6658;53.080;7.428;2024-03-08T01:07:57;18.73;;;13.40;;
13185;SDS011;6658;53.080;7.428;2024-03-08T01:10:23;20.63;;;15.33;;
13185;SDS011;6658;53.080;7.428;2024-03-08T01:12:49;20.77;;;14.63;;
13185;SDS011;6658;53.080;7.428;2024-03-08T01:15:19;18.23;;;14.53;;
13185;SDS011;6658;53.080;7.428;2024-03-08T01:17:45;20.37;;;15.20;;
13185;SDS011;6658;53.080;7.428;2024-03-08T01:20:11;18.93;;;15.33;;
13185;SDS011;6658;53.080;7.428;2024-03-08T01:22:37;18.27;;;15.07;;
13185;SDS011;6658;53.080;7.428;2024-03-08T01:25:03;19.23;;;14.67;;
13185;SDS011;6658;53.080;7.428;2024-03-08T01:27:30;19.07;;;15.20;;
13185;SDS011;6658;53.080;7.428;2024-03-08T01:29:56;19.23;;;14.40;;
13185;SDS011;6658;53.080;7.428;2024-03-08T01:32:22;19.93;;;15.33;;
13185;SDS011;6658;53.080;7.428;2024-03-08T01:34:48;19.23;;;14.90;;
13185;SDS011;6658;53.080;7.428;2024-03-08T01:37:14;19.20;;;14.90;;
13185;SDS011;6658;53.080;7.428;2024-03-08T01:39:40;19.43;;;14.93;;
13185;SDS011;6658;53.080;7.428;2024-03-08T01:42:05;20.07;;;15.23;;
13185;SDS011;6658;53.080;7.428;2024-03-08T01:44:31;18.10;;;14.83;;
13185;SDS011;6658;53.080;7.428;2024-03-08T01:46:57;19.70;;;14.90;;
13185;SDS011;6658;53.080;7.428;2024-03-08T01:49:22;17.60;;;15.00;;
13185;SDS011;6658;53.080;7.428;2024-03-08T01:51:51;18.20;;;14.00;;
13185;SDS011;6658;53.080;7.428;2024-03-08T01:54:18;20.07;;;15.33;;
13185;SDS011;6658;53.080;7.428;2024-03-08T01:56:45;17.80;;;14.07;;
13185;SDS011;6658;53.080;7.428;2024-03-08T01:59:11;17.20;;;14.33;;
13185;SDS011;6658;53.080;7.428;2024-03-08T02:01:39;20.50;;;14.77;;
13185;SDS011;6658;53.080;7.428;2024-03-08T02:04:05;16.90;;;14.03;;
13185;SDS011;6658;53.080;7.428;2024-03-08T02:06:32;18.60;;;13.90;;
13185;SDS011;6658;53.080;7.428;2024-03-08T02:08:59;15.97;;;13.87;;
13185;SDS011;6658;53.080;7.428;2024-03-08T02:11:25;19.77;;;14.17;;
13185;SDS011;6658;53.080;7.428;2024-03-08T02:13:51;20.63;;;15.17;;
13185;SDS011;6658;53.080;7.428;2024-03-08T02:16:21;17.10;;;13.87;;
13185;SDS011;6658;53.080;7.428;2024-03-08T02:18:47;18.47;;;14.03;;
13185;SDS011;6658;53.080;7.428;2024-03-08T02:21:13;17.27;;;13.60;;
13185;SDS011;6658;53.080;7.428;2024-03-08T02:23:43;15.90;;;13.23;;
13185;SDS011;6658;53.080;7.428;2024-03-08T02:26:09;21.17;;;12.37;;
13185;SDS011;6658;53.080;7.428;2024-03-08T02:28:35;17.00;;;13.60;;
13185;SDS011;6658;53.080;7.428;2024-03-08T02:31:01;17.87;;;14.20;;
13185;SDS011;6658;53.080;7.428;2024-03-08T02:33:27;16.67;;;12.33;;
13185;SDS011;6658;53.080;7.428;2024-03-08T02:35:53;15.13;;;12.33;;
13185;SDS011;6658;53.080;7.428;2024-03-08T02:38:21;17.33;;;13.50;;
13185;SDS011;6658;53.080;7.428;2024-03-08T02:40:49;15.17;;;13.53;;
13185;SDS011;6658;53.080;7.428;2024-03-08T02:43:16;16.43;;;13.37;;
13185;SDS011;6658;53.080;7.428;2024-03-08T02:45:43;16.50;;;13.63;;
13185;SDS011;6658;53.080;7.428;2024-03-08T02:48:10;15.80;;;12.57;;
13185;SDS011;6658;53.080;7.428;2024-03-08T02:50:36;16.57;;;13.80;;
13185;SDS011;6658;53.080;7.428;2024-03-08T02:53:04;15.33;;;12.30;;
13185;SDS011;6658;53.080;7.428;2024-03-08T02:55:30;16.37;;;13.20;;
13185;SDS011;6658;53.080;7.428;2024-03-08T02:57:56;14.97;;;11.50;;
13185;SDS011;6658;53.080;7.428;2024-03-08T03:00:23;15.87;;;12.40;;
13185;SDS011;6658;53.080;7.428;2024-03-08T03:02:49;16.00;;;13.07;;
13185;SDS011;6658;53.080;7.428;2024-03-08T03:05:22;17.10;;;12.43;;
13185;SDS011;6658;53.080;7.428;2024-03-08T03:07:48;17.30;;;12.70;;
13185;SDS011;6658;53.080;7.428;2024-03-08T03:10:16;14.47;;;12.17;;
13185;SDS011;6658;53.080;7.428;2024-03-08T03:12:42;15.10;;;12.27;;
13185;SDS011;6658;53.080;7.428;2024-03-08T03:15:10;15.53;;;12.27;;
13185;SDS011;6658;53.080;7.428;2024-03-08T03:17:36;14.27;;;12.13;;
13185;SDS011;6658;53.080;7.428;2024-03-08T03:20:04;14.60;;;12.10;;
13185;SDS011;6658;53.080;7.428;2024-03-08T03:22:35;15.13;;;12.73;;
13185;SDS011;6658;53.080;7.428;2024-03-08T03:25:02;15.90;;;11.57;;
13185;SDS011;6658;53.080;7.428;2024-03-08T03:27:29;15.90;;;12.77;;
13185;SDS011;6658;53.080;7.428;2024-03-08T03:29:55;15.57;;;12.50;;
13185;SDS011;6658;53.080;7.428;2024-03-08T03:32:22;13.73;;;11.50;;
13185;SDS011;6658;53.080;7.428;2024-03-08T03:34:48;14.53;;;11.57;;
13185;SDS011;6658;53.080;7.428;2024-03-08T03:37:18;14.33;;;11.87;;
13185;SDS011;6658;53.080;7.428;2024-03-08T03:39:45;13.33;;;11.77;;
13185;SDS011;6658;53.080;7.428;2024-03-08T03:42:17;14.27;;;12.00;;
13185;SDS011;6658;53.080;7.428;2024-03-08T03:44:46;13.27;;;11.40;;
13185;SDS011;6658;53.080;7.428;2024-03-08T03:47:13;14.60;;;12.07;;
13185;SDS011;6658;53.080;7.428;2024-03-08T03:49:40;13.73;;;11.67;;
13185;SDS011;6658;53.080;7.428;2024-03-08T03:52:11;15.50;;;11.70;;
13185;SDS011;6658;53.080;7.428;2024-03-08T03:54:37;16.30;;;12.77;;
13185;SDS011;6658;53.080;7.428;2024-03-08T03:57:03;16.17;;;12.57;;
13185;SDS011;6658;53.080;7.428;2024-03-08T03:59:32;12.87;;;10.73;;
13185;SDS011;6658;53.080;7.428;2024-03-08T04:01:57;15.40;;;10.90;;
13185;SDS011;6658;53.080;7.428;2024-03-08T04:04:23;14.00;;;11.63;;
13185;SDS011;6658;53.080;7.428;2024-03-08T04:06:49;16.40;;;12.80;;
13185;SDS011;6658;53.080;7.428;2024-03-08T04:09:16;17.03;;;11.27;;
13185;SDS011;6658;53.080;7.428;2024-03-08T04:11:44;16.60;;;11.57;;
13185;SDS011;6658;53.080;7.428;2024-03-08T04:14:10;14.37;;;11.40;;
13185;SDS011;6658;53.080;7.428;2024-03-08T04:16:35;14.87;;;11.97;;
13185;SDS011;6658;53.080;7.428;2024-03-08T04:19:02;15.57;;;12.10;;
13185;SDS011;6658;53.080;7.428;2024-03-08T04:21:32;13.90;;;12.27;;
13185;SDS011;6658;53.080;7.428;2024-03-08T04:23:58;14.47;;;12.13;;
13185;SDS011;6658;53.080;7.428;2024-03-08T04:26:23;15.67;;;12.87;;
13185;SDS011;6658;53.080;7.428;2024-03-08T04:28:51;15.37;;;12.60;;
13185;SDS011;6658;53.080;7.428;2024-03-08T04:31:16;15.57;;;12.33;;
13185;SDS011;6658;53.080;7.428;2024-03-08T04:33:42;13.20;;;11.67;;
13185;SDS011;6658;53.080;7.428;2024-03-08T04:36:09;15.10;;;12.97;;
13185;SDS011;6658;53.080;7.428;2024-03-08T04:38:38;16.03;;;11.90;;
13185;SDS011;6658;53.080;7.428;2024-03-08T04:41:06;17.27;;;12.57;;
13185;SDS011;6658;53.080;7.428;2024-03-08T04:43:32;14.47;;;12.53;;
13185;SDS011;6658;53.080;7.428;2024-03-08T04:45:58;15.50;;;12.47;;
13185;SDS011;6658;53.080;7.428;2024-03-08T04:48:24;16.57;;;13.00;;
13185;SDS011;6658;53.080;7.428;2024-03-08T04:50:51;15.77;;;12.40;;
13185;SDS011;6658;53.080;7.428;2024-03-08T04:53:18;16.20;;;13.13;;
13185;SDS011;6658;53.080;7.428;2024-03-08T04:55:44;14.20;;;11.67;;
13185;SDS011;6658;53.080;7.428;2024-03-08T04:58:10;17.77;;;12.67;;
13185;SDS011;6658;53.080;7.428;2024-03-08T05:00:36;15.23;;;12.10;;
13185;SDS011;6658;53.080;7.428;2024-03-08T05:03:01;14.93;;;11.47;;
13185;SDS011;6658;53.080;7.428;2024-03-08T05:05:27;15.27;;;12.10;;
13185;SDS011;6658;53.080;7.428;2024-03-08T05:07:54;16.33;;;12.07;;
13185;SDS011;6658;53.080;7.428;2024-03-08T05:10:19;12.07;;;9.90;;
13185;SDS011;6658;53.080;7.428;2024-03-08T05:12:45;13.13;;;11.03;;
13185;SDS011;6658;53.080;7.428;2024-03-08T05:15:11;15.83;;;11.90;;
13185;SDS011;6658;53.080;7.428;2024-03-08T05:17:36;16.47;;;12.83;;
13185;SDS011;6658;53.080;7.428;2024-03-08T05:20:02;14.00;;;10.83;;
13185;SDS011;6658;53.080;7.428;2024-03-08T05:22:33;14.60;;;12.20;;
13185;SDS011;6658;53.080;7.428;2024-03-08T05:24:59;13.00;;;10.60;;
13185;SDS011;6658;53.080;7.428;2024-03-08T05:27:25;14.63;;;11.67;;
13185;SDS011;6658;53.080;7.428;2024-03-08T05:29:50;17.00;;;12.40;;
13185;SDS011;6658;53.080;7.428;2024-03-08T05:32:16;14.03;;;11.57;;
13185;SDS011;6658;53.080;7.428;2024-03-08T05:34:42;13.73;;;11.07;;
13185;SDS011;6658;53.080;7.428;2024-03-08T05:37:09;14.50;;;10.60;;
13185;SDS011;6658;53.080;7.428;2024-03-08T05:39:36;14.77;;;11.00;;
13185;SDS011;6658;53.080;7.428;2024-03-08T05:42:02;13.77;;;11.50;;
13185;SDS011;6658;53.080;7.428;2024-03-08T05:44:27;14.13;;;12.10;;
13185;SDS011;6658;53.080;7.428;2024-03-08T05:46:56;14.53;;;11.57;;
13185;SDS011;6658;53.080;7.428;2024-03-08T05:49:21;13.67;;;11.03;;
13185;SDS011;6658;53.080;7.428;2024-03-08T05:51:47;14.93;;;12.13;;
13185;SDS011;6658;53.080;7.428;2024-03-08T05:54:13;15.40;;;11.53;;
13185;SDS011;6658;53.080;7.428;2024-03-08T05:56:39;13.33;;;11.20;;
13185;SDS011;6658;53.080;7.428;2024-03-08T05:59:09;13.47;;;12.07;;
13185;SDS011;6658;53.080;7.428;2024-03-08T06:01:35;17.67;;;11.60;;
13185;SDS011;6658;53.080;7.428;2024-03-08T06:04:01;13.73;;;11.73;;
13185;SDS011;6658;53.080;7.428;2024-03-08T06:06:28;14.67;;;11.40;;
13185;SDS011;6658;53.080;7.428;2024-03-08T06:08:54;15.53;;;11.97;;
13185;SDS011;6658;53.080;7.428;2024-03-08T06:11:24;14.57;;;11.07;;
13185;SDS011;6658;53.080;7.428;2024-03-08T06:13:51;17.47;;;12.80;;
13185;SDS011;6658;53.080;7.428;2024-03-08T06:16:20;12.27;;;10.97;;
13185;SDS011;6658;53.080;7.428;2024-03-08T06:18:46;12.57;;;10.57;;
13185;SDS011;6658;53.080;7.428;2024-03-08T06:21:11;15.57;;;12.10;;
13185;SDS011;6658;53.080;7.428;2024-03-08T06:23:37;13.50;;;11.73;;
13185;SDS011;6658;53.080;7.428;2024-03-08T06:26:06;15.13;;;12.50;;
13185;SDS011;6658;53.080;7.428;2024-03-08T06:28:33;15.03;;;12.40;;
13185;SDS011;6658;53.080;7.428;2024-03-08T06:31:00;16.43;;;12.73;;
13185;SDS011;6658;53.080;7.428;2024-03-08T06:33:26;15.17;;;12.10;;
13185;SDS011;6658;53.080;7.428;2024-03-08T06:35:52;15.40;;;12.13;;
13185;SDS011;6658;53.080;7.428;2024-03-08T06:38:24;13.37;;;11.47;;
13185;SDS011;6658;53.080;7.428;2024-03-08T06:40:50;13.53;;;11.00;;
13185;SDS011;6658;53.080;7.428;2024-03-08T06:43:17;15.50;;;12.17;;
13185;SDS011;6658;53.080;7.428;2024-03-08T06:45:44;13.80;;;10.80;;
13185;SDS011;6658;53.080;7.428;2024-03-08T06:48:17;15.83;;;12.30;;
13185;SDS011;6658;53.080;7.428;2024-03-08T06:50:43;14.30;;;11.07;;
13185;SDS011;6658;53.080;7.428;2024-03-08T06:53:10;15.63;;;11.37;;
13185;SDS011;6658;53.080;7.428;2024-03-08T06:55:36;15.63;;;12.07;;
13185;SDS011;6658;53.080;7.428;2024-03-08T06:58:02;15.47;;;12.20;;
13185;SDS011;6658;53.080;7.428;2024-03-08T07:00:28;16.87;;;12.63;;
13185;SDS011;6658;53.080;7.428;2024-03-08T07:02:56;15.60;;;12.10;;
13185;SDS011;6658;53.080;7.428;2024-03-08T07:05:25;17.60;;;12.83;;
13185;SDS011;6658;53.080;7.428;2024-03-08T07:07:52;14.80;;;12.97;;
13185;SDS011;6658;53.080;7.428;2024-03-08T07:10:19;14.40;;;11.47;;
13185;SDS011;6658;53.080;7.428;2024-03-08T07:12:45;10.27;;;9.00;;
13185;SDS011;6658;53.080;7.428;2024-03-08T07:15:11;14.07;;;11.40;;
13185;SDS011;6658;53.080;7.428;2024-03-08T07:17:41;15.77;;;12.07;;
13185;SDS011;6658;53.080;7.428;2024-03-08T07:20:09;16.10;;;11.67;;
13185;SDS011;6658;53.080;7.428;2024-03-08T07:22:37;13.03;;;10.73;;
13185;SDS011;6658;53.080;7.428;2024-03-08T07:25:06;13.10;;;11.50;;
13185;SDS011;6658;53.080;7.428;2024-03-08T07:27:35;14.73;;;12.20;;
13185;SDS011;6658;53.080;7.428;2024-03-08T07:30:01;19.10;;;12.90;;
13185;SDS011;6658;53.080;7.428;2024-03-08T07:32:27;14.70;;;12.20;;
13185;SDS011;6658;53.080;7.428;2024-03-08T07:34:55;13.37;;;11.30;;
13185;SDS011;6658;53.080;7.428;2024-03-08T07:37:21;14.83;;;12.03;;
13185;SDS011;6658;53.080;7.428;2024-03-08T07:39:47;16.50;;;12.13;;
13185;SDS011;6658;53.080;7.428;2024-03-08T07:42:16;15.90;;;11.90;;
13185;SDS011;6658;53.080;7.428;2024-03-08T07:44:51;12.97;;;9.63;;
13185;SDS011;6658;53.080;7.428;2024-03-08T07:47:17;9.60;;;8.60;;
13185;SDS011;6658;53.080;7.428;2024-03-08T07:49:43;14.27;;;11.20;;
13185;SDS011;6658;53.080;7.428;2024-03-08T07:52:09;15.53;;;11.73;;
13185;SDS011;6658;53.080;7.428;2024-03-08T07:54:40;14.93;;;12.27;;
13185;SDS011;6658;53.080;7.428;2024-03-08T07:57:06;13.30;;;11.83;;
13185;SDS011;6658;53.080;7.428;2024-03-08T07:59:32;14.37;;;10.63;;
13185;SDS011;6658;53.080;7.428;2024-03-08T08:01:58;14.53;;;12.63;;
13185;SDS011;6658;53.080;7.428;2024-03-08T08:04:24;7.90;;;6.70;;
13185;SDS011;6658;53.080;7.428;2024-03-08T08:07:00;11.57;;;9.87;;
13185;SDS011;6658;53.080;7.428;2024-03-08T08:09:26;13.90;;;9.67;;
13185;SDS011;6658;53.080;7.428;2024-03-08T08:11:59;11.17;;;9.90;;
13185;SDS011;6658;53.080;7.428;2024-03-08T08:14:27;12.93;;;9.40;;
13185;SDS011;6658;53.080;7.428;2024-03-08T08:16:54;12.97;;;11.67;;
13185;SDS011;6658;53.080;7.428;2024-03-08T08:19:22;13.40;;;11.97;;
13185;SDS011;6658;53.080;7.428;2024-03-08T08:21:48;9.63;;;7.63;;
13185;SDS011;6658;53.080;7.428;2024-03-08T08:24:14;10.10;;;9.00;;
13185;SDS011;6658;53.080;7.428;2024-03-08T08:26:40;8.23;;;6.77;;
13185;SDS011;6658;53.080;7.428;2024-03-08T08:29:06;11.40;;;9.70;;
13185;SDS011;6658;53.080;7.428;2024-03-08T08:31:32;9.57;;;8.47;;
13185;SDS011;6658;53.080;7.428;2024-03-08T08:33:58;12.83;;;10.93;;
13185;SDS011;6658;53.080;7.428;2024-03-08T08:36:34;11.17;;;9.13;;
13185;SDS011;6658;53.080;7.428;2024-03-08T08:39:00;8.40;;;6.90;;
13185;SDS011;6658;53.080;7.428;2024-03-08T08:41:38;12.17;;;9.67;;
13185;SDS011;6658;53.080;7.428;2024-03-08T08:44:07;8.67;;;7.37;;
13185;SDS011;6658;53.080;7.428;2024-03-08T08:46:40;13.70;;;9.70;;
13185;SDS011;6658;53.080;7.428;2024-03-08T08:49:06;16.33;;;9.97;;
13185;SDS011;6658;53.080;7.428;2024-03-08T08:51:39;7.03;;;5.53;;
13185;SDS011;6658;53.080;7.428;2024-03-08T08:54:05;12.90;;;10.17;;
13185;SDS011;6658;53.080;7.428;2024-03-08T08:56:34;8.37;;;6.50;;
13185;SDS011;6658;53.080;7.428;2024-03-08T08:59:00;7.90;;;4.83;;
13185;SDS011;6658;53.080;7.428;2024-03-08T09:01:26;12.17;;;9.93;;
13185;SDS011;6658;53.080;7.428;2024-03-08T09:03:52;10.43;;;8.00;;
13185;SDS011;6658;53.080;7.428;2024-03-08T09:06:19;6.73;;;5.23;;
13185;SDS011;6658;53.080;7.428;2024-03-08T09:08:45;9.60;;;8.20;;
13185;SDS011;6658;53.080;7.428;2024-03-08T09:11:11;12.50;;;10.10;;
13185;SDS011;6658;53.080;7.428;2024-03-08T09:13:37;10.53;;;8.93;;
13185;SDS011;6658;53.080;7.428;2024-03-08T09:16:03;11.80;;;8.87;;
13185;SDS011;6658;53.080;7.428;2024-03-08T09:18:30;11.40;;;9.80;;
13185;SDS011;6658;53.080;7.428;2024-03-08T09:20:57;12.57;;;10.30;;
13185;SDS011;6658;53.080;7.428;2024-03-08T09:23:24;10.43;;;7.67;;
13185;SDS011;6658;53.080;7.428;2024-03-08T09:25:55;10.63;;;8.70;;
13185;SDS011;6658;53.080;7.428;2024-03-08T09:28:24;14.77;;;11.97;;
13185;SDS011;6658;53.080;7.428;2024-03-08T09:30:50;20.63;;;13.50;;
13185;SDS011;6658;53.080;7.428;2024-03-08T09:33:15;12.90;;;8.03;;
13185;SDS011;6658;53.080;7.428;2024-03-08T09:35:47;8.33;;;6.93;;
13185;SDS011;6658;53.080;7.428;2024-03-08T09:38:14;8.53;;;6.50;;
13185;SDS011;6658;53.080;7.428;2024-03-08T09:40:43;13.30;;;11.90;;
13185;SDS011;6658;53.080;7.428;2024-03-08T09:43:09;11.33;;;8.50;;
13185;SDS011;6658;53.080;7.428;2024-03-08T09:45:37;12.23;;;10.83;;
13185;SDS011;6658;53.080;7.428;2024-03-08T09:48:12;9.50;;;7.40;;
13185;SDS011;6658;53.080;7.428;2024-03-08T09:50:41;8.63;;;6.90;;
13185;SDS011;6658;53.080;7.428;2024-03-08T09:53:07;12.53;;;9.83;;
13185;SDS011;6658;53.080;7.428;2024-03-08T09:55:36;10.73;;;9.20;;
13185;SDS011;6658;53.080;7.428;2024-03-08T09:58:12;11.57;;;10.37;;
13185;SDS011;6658;53.080;7.428;2024-03-08T10:00:47;8.70;;;7.47;;
13185;SDS011;6658;53.080;7.428;2024-03-08T10:03:13;15.00;;;11.77;;
13185;SDS011;6658;53.080;7.428;2024-03-08T10:05:42;13.97;;;7.77;;
13185;SDS011;6658;53.080;7.428;2024-03-08T10:08:10;12.80;;;10.27;;
13185;SDS011;6658;53.080;7.428;2024-03-08T10:10:39;11.87;;;10.00;;
13185;SDS011;6658;53.080;7.428;2024-03-08T10:13:08;13.23;;;11.43;;
13185;SDS011;6658;53.080;7.428;2024-03-08T10:15:37;10.23;;;8.53;;
13185;SDS011;6658;53.080;7.428;2024-03-08T10:18:07;9.00;;;7.67;;
13185;SDS011;6658;53.080;7.428;2024-03-08T10:20:35;13.23;;;8.23;;
13185;SDS011;6658;53.080;7.428;2024-03-08T10:23:01;10.37;;;9.30;;
13185;SDS011;6658;53.080;7.428;2024-03-08T10:25:30;19.63;;;11.97;;
13185;SDS011;6658;53.080;7.428;2024-03-08T10:27:57;10.40;;;9.23;;
13185;SDS011;6658;53.080;7.428;2024-03-08T10:30:22;14.00;;;12.60;;
13185;SDS011;6658;53.080;7.428;2024-03-08T10:32:48;13.97;;;11.63;;
13185;SDS011;6658;53.080;7.428;2024-03-08T10:35:14;6.90;;;6.20;;
13185;SDS011;6658;53.080;7.428;2024-03-08T10:40:15;14.77;;;12.30;;
13185;SDS011;6658;53.080;7.428;2024-03-08T10:45:38;10.63;;;9.20;;
13185;SDS011;6658;53.080;7.428;2024-03-08T10:50:56;8.30;;;6.87;;
13185;SDS011;6658;53.080;7.428;2024-03-08T10:53:24;12.87;;;11.50;;
13185;SDS011;6658;53.080;7.428;2024-03-08T10:55:52;13.30;;;11.63;;
13185;SDS011;6658;53.080;7.428;2024-03-08T10:58:19;13.87;;;12.43;;
13185;SDS011;6658;53.080;7.428;2024-03-08T11:00:47;14.23;;;12.73;;
13185;SDS011;6658;53.080;7.428;2024-03-08T11:06:17;13.63;;;12.23;;
13185;SDS011;6658;53.080;7.428;2024-03-08T11:08:48;13.00;;;11.67;;
13185;SDS011;6658;53.080;7.428;2024-03-08T11:11:29;13.03;;;11.30;;
13185;SDS011;6658;53.080;7.428;2024-03-08T11:14:00;13.27;;;11.90;;
13185;SDS011;6658;53.080;7.428;2024-03-08T11:19:01;14.40;;;9.97;;
13185;SDS011;6658;53.080;7.428;2024-03-08T11:21:36;12.33;;;10.47;;
13185;SDS011;6658;53.080;7.428;2024-03-08T11:24:11;11.23;;;9.53;;
13185;SDS011;6658;53.080;7.428;2024-03-08T11:26:38;9.77;;;8.37;;
13185;SDS011;6658;53.080;7.428;2024-03-08T11:29:39;7.63;;;6.27;;
13185;SDS011;6658;53.080;7.428;2024-03-08T11:32:11;15.40;;;10.67;;
13185;SDS011;6658;53.080;7.428;2024-03-08T11:34:40;10.27;;;9.17;;
13185;SDS011;6658;53.080;7.428;2024-03-08T11:37:13;6.60;;;5.77;;
13185;SDS011;6658;53.080;7.428;2024-03-08T11:39:40;6.20;;;5.60;;
13185;SDS011;6658;53.080;7.428;2024-03-08T11:42:15;10.40;;;8.80;;
13185;SDS011;6658;53.080;7.428;2024-03-08T11:44:42;9.23;;;7.33;;
13185;SDS011;6658;53.080;7.428;2024-03-08T11:47:12;8.87;;;7.97;;
13185;SDS011;6658;53.080;7.428;2024-03-08T11:49:41;9.80;;;7.63;;
13185;SDS011;6658;53.080;7.428;2024-03-08T11:52:12;6.47;;;5.50;;
13185;SDS011;6658;53.080;7.428;2024-03-08T11:54:41;9.90;;;7.93;;
13185;SDS011;6658;53.080;7.428;2024-03-08T11:57:11;8.47;;;7.43;;
13185;SDS011;6658;53.080;7.428;2024-03-08T11:59:36;9.03;;;7.27;;
13185;SDS011;6658;53.080;7.428;2024-03-08T12:02:03;7.67;;;6.83;;
13185;SDS011;6658;53.080;7.428;2024-03-08T12:04:30;7.03;;;5.63;;
13185;SDS011;6658;53.080;7.428;2024-03-08T12:06:59;8.97;;;8.07;;
13185;SDS011;6658;53.080;7.428;2024-03-08T12:09:36;8.83;;;7.13;;
13185;SDS011;6658;53.080;7.428;2024-03-08T12:12:03;11.20;;;10.10;;
13185;SDS011;6658;53.080;7.428;2024-03-08T12:14:32;7.97;;;5.17;;
13185;SDS011;6658;53.080;7.428;2024-03-08T12:16:59;9.80;;;8.60;;
13185;SDS011;6658;53.080;7.428;2024-03-08T12:19:29;11.80;;;10.70;;
13185;SDS011;6658;53.080;7.428;2024-03-08T12:21:55;8.07;;;6.87;;
13185;SDS011;6658;53.080;7.428;2024-03-08T12:24:21;12.73;;;10.37;;
13185;SDS011;6658;53.080;7.428;2024-03-08T12:26:47;9.30;;;8.33;;
13185;SDS011;6658;53.080;7.428;2024-03-08T12:29:23;10.40;;;8.13;;
13185;SDS011;6658;53.080;7.428;2024-03-08T12:31:52;6.97;;;5.60;;
13185;SDS011;6658;53.080;7.428;2024-03-08T12:34:19;13.30;;;7.60;;
13185;SDS011;6658;53.080;7.428;2024-03-08T12:36:45;9.30;;;7.30;;
13185;SDS011;6658;53.080;7.428;2024-03-08T12:39:13;9.90;;;8.90;;
13185;SDS011;6658;53.080;7.428;2024-03-08T12:42:08;10.83;;;8.63;;
13185;SDS011;6658;53.080;7.428;2024-03-08T12:44:34;8.90;;;7.57;;
13185;SDS011;6658;53.080;7.428;2024-03-08T12:47:00;9.67;;;8.67;;
13185;SDS011;6658;53.080;7.428;2024-03-08T12:49:26;8.53;;;7.57;;
13185;SDS011;6658;53.080;7.428;2024-03-08T12:51:52;10.37;;;9.37;;
13185;SDS011;6658;53.080;7.428;2024-03-08T12:54:18;9.87;;;7.80;;
13185;SDS011;6658;53.080;7.428;2024-03-08T12:56:48;9.93;;;8.93;;
13185;SDS011;6658;53.080;7.428;2024-03-08T12:59:16;11.23;;;9.80;;
13185;SDS011;6658;53.080;7.428;2024-03-08T13:01:42;11.03;;;7.57;;
13185;SDS011;6658;53.080;7.428;2024-03-08T13:04:08;10.37;;;9.33;;
13185;SDS011;6658;53.080;7.428;2024-03-08T13:06:38;9.50;;;8.13;;
13185;SDS011;6658;53.080;7.428;2024-03-08T13:09:04;9.87;;;8.97;;
13185;SDS011;6658;53.080;7.428;2024-03-08T13:11:30;7.47;;;6.73;;
13185;SDS011;6658;53.080;7.428;2024-03-08T13:14:04;8.93;;;8.03;;
13185;SDS011;6658;53.080;7.428;2024-03-08T13:16:30;8.23;;;7.43;;
13185;SDS011;6658;53.080;7.428;2024-03-08T13:19:08;7.90;;;7.10;;
13185;SDS011;6658;53.080;7.428;2024-03-08T13:21:34;7.00;;;5.87;;
13185;SDS011;6658;53.080;7.428;2024-03-08T13:24:03;7.63;;;6.07;;
13185;SDS011;6658;53.080;7.428;2024-03-08T13:26:29;10.33;;;8.23;;
13185;SDS011;6658;53.080;7.428;2024-03-08T13:28:58;9.97;;;8.60;;
13185;SDS011;6658;53.080;7.428;2024-03-08T13:31:31;9.80;;;6.93;;
13185;SDS011;6658;53.080;7.428;2024-03-08T13:33:58;7.17;;;6.43;;
13185;SDS011;6658;53.080;7.428;2024-03-08T13:36:24;8.90;;;8.00;;
13185;SDS011;6658;53.080;7.428;2024-03-08T13:39:00;10.27;;;8.60;;
13185;SDS011;6658;53.080;7.428;2024-03-08T13:41:26;10.50;;;9.27;;
13185;SDS011;6658;53.080;7.428;2024-03-08T13:44:00;12.23;;;9.87;;
13185;SDS011;6658;53.080;7.428;2024-03-08T13:46:26;12.57;;;10.97;;
13185;SDS011;6658;53.080;7.428;2024-03-08T13:48:55;10.33;;;9.10;;
13185;SDS011;6658;53.080;7.428;2024-03-08T13:51:22;9.40;;;7.67;;
13185;SDS011;6658;53.080;7.428;2024-03-08T13:53:50;9.20;;;7.80;;
13185;SDS011;6658;53.080;7.428;2024-03-08T13:56:16;12.23;;;10.93;;
13185;SDS011;6658;53.080;7.428;2024-03-08T13:58:42;12.43;;;8.93;;
13185;SDS011;6658;53.080;7.428;2024-03-08T14:01:09;10.57;;;9.47;;
13185;SDS011;6658;53.080;7.428;2024-03-08T14:03:49;7.43;;;6.60;;
13185;SDS011;6658;53.080;7.428;2024-03-08T14:06:15;8.63;;;7.73;;
13185;SDS011;6658;53.080;7.428;2024-03-08T14:08:41;10.10;;;8.40;;
13185;SDS011;6658;53.080;7.428;2024-03-08T14:11:10;11.33;;;9.80;;
13185;SDS011;6658;53.080;7.428;2024-03-08T14:13:42;9.13;;;7.43;;
13185;SDS011;6658;53.080;7.428;2024-03-08T14:16:12;10.57;;;7.13;;
13185;SDS011;6658;53.080;7.428;2024-03-08T14:18:38;12.53;;;10.33;;
13185;SDS011;6658;53.080;7.428;2024-03-08T14:21:04;9.20;;;7.90;;
13185;SDS011;6658;53.080;7.428;2024-03-08T14:23:42;12.60;;;11.30;;
13185;SDS011;6658;53.080;7.428;2024-03-08T14:26:08;11.43;;;10.20;;
13185;SDS011;6658;53.080;7.428;2024-03-08T14:28:35;11.90;;;9.03;;
13185;SDS011;6658;53.080;7.428;2024-03-08T14:31:12;10.13;;;8.37;;
13185;SDS011;6658;53.080;7.428;2024-03-08T14:33:44;11.30;;;10.10;;
13185;SDS011;6658;53.080;7.428;2024-03-08T14:36:14;11.07;;;9.73;;
13185;SDS011;6658;53.080;7.428;2024-03-08T14:38:42;11.40;;;9.40;;
13185;SDS011;6658;53.080;7.428;2024-03-08T14:41:14;8.93;;;6.00;;
13185;SDS011;6658;53.080;7.428;2024-03-08T14:43:47;9.43;;;8.03;;
13185;SDS011;6658;53.080;7.428;2024-03-08T14:46:14;10.10;;;7.83;;
13185;SDS011;6658;53.080;7.428;2024-03-08T14:48:43;11.07;;;9.97;;
13185;SDS011;6658;53.080;7.428;2024-03-08T14:51:12;9.10;;;7.40;;
13185;SDS011;6658;53.080;7.428;2024-03-08T14:53:41;11.50;;;9.60;;
13185;SDS011;6658;53.080;7.428;2024-03-08T14:56:10;10.07;;;8.13;;
13185;SDS011;6658;53.080;7.428;2024-03-08T14:58:44;8.00;;;6.10;;